createdAt,value
2023-04-09T00:00:12.800Z,5.46
2023-04-09T00:02:39.761Z,5.32
2023-04-09T00:05:07.548Z,5.29
2023-04-09T00:07:34.590Z,5.31
2023-04-09T00:10:01.485Z,5.27
2023-04-09T00:12:30.272Z,5.41
2023-04-09T00:14:57.564Z,5.44
2023-04-09T00:17:24.240Z,5.38
2023-04-09T00:19:51.235Z,5.37
2023-04-09T00:22:18.013Z,5.46
2023-04-09T00:24:44.640Z,5.39
2023-04-09T00:27:11.320Z,5.56
2023-04-09T00:29:38.084Z,5.46
2023-04-09T00:32:04.957Z,5.43
2023-04-09T00:34:31.743Z,5.29
2023-04-09T00:36:58.347Z,5.21
2023-04-09T00:39:25.382Z,5.19
2023-04-09T00:41:59.900Z,5.19
2023-04-09T00:44:26.653Z,5.28
2023-04-09T00:46:54.652Z,5.25
2023-04-09T00:49:22.256Z,5.25
2023-04-09T00:51:49.104Z,5.33
2023-04-09T00:54:16.347Z,5.23
2023-04-09T00:56:43.290Z,5.35
2023-04-09T00:59:09.994Z,5.43
2023-04-09T01:01:36.708Z,5.48
2023-04-09T01:04:03.841Z,5.69
2023-04-09T01:06:39.124Z,5.79
2023-04-09T01:09:15.564Z,5.60
2023-04-09T01:12:09.682Z,5.46
2023-04-09T01:14:48.336Z,5.51
2023-04-09T01:17:44.461Z,5.32
2023-04-09T01:20:23.035Z,5.28
2023-04-09T01:23:02.317Z,5.28
2023-04-09T01:26:02.378Z,5.16
2023-04-09T01:28:35.436Z,5.07
2023-04-09T01:31:07.788Z,5.16
2023-04-09T01:33:36.019Z,5.15
2023-04-09T01:36:09.142Z,5.13
2023-04-09T01:38:37.748Z,5.07
2023-04-09T01:41:05.860Z,5.12
2023-04-09T01:43:33.825Z,5.16
2023-04-09T01:46:02.771Z,5.05
2023-04-09T01:48:30.910Z,4.91
2023-04-09T01:50:59.136Z,4.97
2023-04-09T01:53:28.529Z,5.06
2023-04-09T01:55:58.729Z,4.92
2023-04-09T01:58:26.688Z,5.03
2023-04-09T02:01:12.194Z,5.04
2023-04-09T02:03:49.337Z,4.79
2023-04-09T02:06:22.872Z,4.68
2023-04-09T02:08:52.935Z,4.49
2023-04-09T02:11:23.686Z,4.60
2023-04-09T02:13:54.014Z,4.70
2023-04-09T02:16:21.570Z,4.73
2023-04-09T02:18:52.921Z,4.74
2023-04-09T02:21:19.668Z,4.63
2023-04-09T02:23:46.341Z,4.65
2023-04-09T02:26:13.056Z,4.58
2023-04-09T02:28:39.717Z,4.67
2023-04-09T02:31:06.368Z,4.49
2023-04-09T02:33:33.082Z,4.44
2023-04-09T02:35:59.762Z,4.34
2023-04-09T02:38:26.413Z,4.28
2023-04-09T02:40:53.072Z,4.27
2023-04-09T02:43:19.722Z,4.22
2023-04-09T02:45:46.331Z,4.06
2023-04-09T02:48:12.955Z,4.10
2023-04-09T02:50:39.676Z,3.98
2023-04-09T02:53:06.369Z,3.99
2023-04-09T02:55:34.538Z,3.82
2023-04-09T02:58:01.168Z,3.81
2023-04-09T03:00:27.828Z,3.82
2023-04-09T03:02:55.093Z,3.85
2023-04-09T03:05:21.823Z,3.97
2023-04-09T03:07:49.680Z,4.16
2023-04-09T03:10:16.483Z,4.19
2023-04-09T03:12:44.699Z,4.10
2023-04-09T03:15:11.661Z,4.40
2023-04-09T03:17:39.413Z,4.32
2023-04-09T03:20:09.315Z,4.08
2023-04-09T03:22:40.148Z,4.45
2023-04-09T03:25:07.140Z,4.46
2023-04-09T03:27:33.852Z,4.32
2023-04-09T03:30:00.536Z,4.32
2023-04-09T03:32:27.335Z,4.47
2023-04-09T03:34:54.035Z,4.43
2023-04-09T03:37:20.814Z,4.50
2023-04-09T03:39:47.435Z,4.58
2023-04-09T03:42:14.085Z,4.90
2023-04-09T03:44:40.736Z,4.77
2023-04-09T03:47:07.958Z,4.71
2023-04-09T03:49:37.811Z,4.77
2023-04-09T03:52:04.609Z,4.88
2023-04-09T03:54:31.474Z,4.73
2023-04-09T03:56:58.234Z,4.90
2023-04-09T03:59:24.923Z,5.05
2023-04-09T04:01:51.828Z,5.20
2023-04-09T04:04:20.504Z,5.26
2023-04-09T04:06:48.673Z,5.25
2023-04-09T04:09:15.511Z,5.34
2023-04-09T04:11:42.157Z,5.34
2023-04-09T04:14:08.799Z,5.43
2023-04-09T04:16:35.548Z,5.51
2023-04-09T04:19:02.270Z,5.57
2023-04-09T04:21:29.004Z,5.51
2023-04-09T04:23:55.701Z,5.61
2023-04-09T04:26:22.321Z,5.68
2023-04-09T04:28:48.975Z,5.57
2023-04-09T04:31:15.710Z,5.73
2023-04-09T04:33:43.030Z,5.79
2023-04-09T04:36:14.239Z,5.72
2023-04-09T04:38:44.058Z,5.82
2023-04-09T04:41:11.805Z,5.87
2023-04-09T04:43:38.610Z,6.11
2023-04-09T04:46:06.349Z,6.10
2023-04-09T04:48:33.072Z,6.04
2023-04-09T04:51:01.300Z,5.98
2023-04-09T04:53:28.381Z,6.00
2023-04-09T04:55:55.200Z,6.07
2023-04-09T04:58:21.922Z,6.16
2023-04-09T05:00:48.624Z,6.05
2023-04-09T05:03:15.552Z,6.10
2023-04-09T05:05:42.611Z,6.08
2023-04-09T05:08:09.302Z,6.29
2023-04-09T05:10:36.043Z,6.14
2023-04-09T05:13:02.734Z,6.20
2023-04-09T05:15:29.481Z,6.51
2023-04-09T05:17:56.449Z,6.37
2023-04-09T05:20:23.263Z,6.56
2023-04-09T05:22:49.940Z,6.78
2023-04-09T05:25:16.715Z,6.99
2023-04-09T05:27:43.464Z,6.96
2023-04-09T05:30:10.595Z,6.92
2023-04-09T05:32:37.975Z,7.05
2023-04-09T05:35:05.642Z,7.00
2023-04-09T05:37:32.307Z,7.00
2023-04-09T05:39:58.995Z,7.31
2023-04-09T05:42:25.650Z,7.22
2023-04-09T05:44:52.299Z,7.25
2023-04-09T05:47:19.029Z,7.34
2023-04-09T05:49:46.216Z,7.48
2023-04-09T05:52:12.866Z,7.52
2023-04-09T05:54:39.469Z,7.50
2023-04-09T05:57:06.249Z,7.74
2023-04-09T05:59:32.952Z,7.66
2023-04-09T06:01:59.590Z,7.77
2023-04-09T06:04:26.292Z,7.73
2023-04-09T06:06:52.944Z,7.88
2023-04-09T06:09:19.635Z,7.76
2023-04-09T06:11:46.317Z,7.81
2023-04-09T06:14:16.495Z,7.90
2023-04-09T06:16:43.222Z,7.94
2023-04-09T06:19:10.042Z,7.70
2023-04-09T06:21:36.715Z,7.78
2023-04-09T06:24:03.412Z,7.89
2023-04-09T06:26:30.149Z,7.96
2023-04-09T06:28:56.788Z,8.07
2023-04-09T06:31:23.418Z,8.12
2023-04-09T06:33:50.876Z,8.15
2023-04-09T06:36:17.885Z,8.34
2023-04-09T06:38:44.532Z,8.31
2023-04-09T06:41:12.857Z,8.49
2023-04-09T06:43:39.570Z,8.50
2023-04-09T06:46:06.252Z,8.33
2023-04-09T06:48:33.089Z,8.43
2023-04-09T06:50:59.728Z,8.61
2023-04-09T06:53:26.529Z,8.46
2023-04-09T06:55:54.410Z,8.59
2023-04-09T06:58:22.172Z,8.73
2023-04-09T07:00:48.982Z,8.99
2023-04-09T07:03:15.902Z,9.12
2023-04-09T07:05:42.696Z,9.31
2023-04-09T07:08:09.416Z,9.35
2023-04-09T07:10:36.216Z,9.62
2023-04-09T07:13:03.353Z,9.72
2023-04-09T07:15:29.992Z,10.11
2023-04-09T07:17:57.798Z,10.40
2023-04-09T07:20:24.648Z,10.57
2023-04-09T07:22:51.361Z,10.53
2023-04-09T07:25:18.217Z,10.21
2023-04-09T07:27:44.841Z,10.30
2023-04-09T07:30:11.610Z,10.68
2023-04-09T07:32:38.635Z,10.80
2023-04-09T07:35:09.897Z,10.75
2023-04-09T07:37:36.606Z,10.91
2023-04-09T07:40:06.958Z,10.87
2023-04-09T07:42:33.575Z,11.27
2023-04-09T07:45:00.791Z,11.38
2023-04-09T07:47:28.679Z,11.33
2023-04-09T07:49:55.436Z,11.77
2023-04-09T07:52:22.192Z,11.35
2023-04-09T07:54:48.933Z,11.58
2023-04-09T07:57:15.928Z,11.49
2023-04-09T07:59:42.658Z,11.71
2023-04-09T08:02:10.188Z,11.43
2023-04-09T08:04:38.440Z,11.86
2023-04-09T08:07:05.506Z,12.40
2023-04-09T08:09:32.149Z,12.69
2023-04-09T08:11:58.831Z,12.19
2023-04-09T08:14:25.593Z,12.46
2023-04-09T08:16:52.417Z,12.28
2023-04-09T08:19:20.464Z,12.27
2023-04-09T08:21:48.967Z,12.58
2023-04-09T08:24:16.235Z,13.27
2023-04-09T08:26:43.490Z,12.67
2023-04-09T08:29:12.373Z,13.06
2023-04-09T08:31:39.844Z,12.80
2023-04-09T08:34:06.748Z,13.29
2023-04-09T08:36:34.997Z,13.66
2023-04-09T08:39:02.484Z,13.45
2023-04-09T08:41:29.804Z,13.26
2023-04-09T08:43:59.220Z,13.72
2023-04-09T08:46:33.319Z,13.80
2023-04-09T08:48:59.994Z,14.41
2023-04-09T08:51:26.879Z,13.47
2023-04-09T08:53:57.599Z,13.42
2023-04-09T08:56:24.840Z,13.94
2023-04-09T08:58:52.929Z,12.48
2023-04-09T09:01:20.386Z,13.67
2023-04-09T09:03:58.485Z,12.56
2023-04-09T09:06:30.211Z,12.99
2023-04-09T09:09:01.209Z,13.75
2023-04-09T09:11:28.468Z,13.81
2023-04-09T09:14:00.413Z,13.91
2023-04-09T09:16:27.667Z,13.78
2023-04-09T09:18:56.332Z,14.32
2023-04-09T09:21:23.842Z,13.97
2023-04-09T09:23:50.968Z,14.48
2023-04-09T09:26:21.112Z,14.15
2023-04-09T09:28:49.642Z,14.15
2023-04-09T09:31:17.990Z,14.12
2023-04-09T09:33:44.834Z,13.97
2023-04-09T09:36:11.731Z,14.68
2023-04-09T09:38:56.251Z,14.86
2023-04-09T09:41:24.158Z,14.84
2023-04-09T09:43:51.255Z,14.50
2023-04-09T09:46:18.373Z,14.64
2023-04-09T09:48:46.558Z,14.21
2023-04-09T09:51:14.448Z,14.91
2023-04-09T09:53:46.589Z,15.13
2023-04-09T09:56:16.816Z,14.87
2023-04-09T09:58:56.312Z,14.86
2023-04-09T10:01:26.678Z,15.39
2023-04-09T10:03:56.436Z,15.74
2023-04-09T10:06:24.013Z,16.24
2023-04-09T10:08:52.884Z,15.70
2023-04-09T10:11:20.910Z,15.64
2023-04-09T10:13:54.524Z,15.53
2023-04-09T10:16:23.379Z,15.27
2023-04-09T10:18:50.685Z,15.40
2023-04-09T10:21:44.784Z,14.75
2023-04-09T10:24:12.098Z,14.99
2023-04-09T10:26:42.381Z,15.53
2023-04-09T10:29:14.106Z,15.89
2023-04-09T10:31:55.077Z,16.00
2023-04-09T10:34:23.688Z,16.47
2023-04-09T10:36:55.596Z,16.69
2023-04-09T10:39:32.126Z,16.78
2023-04-09T10:42:02.363Z,16.70
2023-04-09T10:44:32.286Z,15.70
2023-04-09T10:46:59.322Z,15.61
2023-04-09T10:49:27.713Z,16.15
2023-04-09T10:52:08.004Z,15.76
2023-04-09T10:54:48.505Z,15.93
2023-04-09T10:57:22.770Z,15.47
2023-04-09T10:59:54.577Z,15.80
2023-04-09T11:02:39.864Z,15.95
2023-04-09T11:05:20.551Z,16.32
2023-04-09T11:07:53.634Z,16.75
2023-04-09T11:10:21.768Z,17.13
2023-04-09T11:12:49.221Z,17.44
2023-04-09T11:15:19.714Z,17.28
2023-04-09T11:17:50.175Z,17.00
2023-04-09T11:20:20.939Z,17.12
2023-04-09T11:22:49.369Z,16.81
2023-04-09T11:25:20.390Z,16.06
2023-04-09T11:27:47.640Z,16.51
2023-04-09T11:30:14.927Z,16.24
2023-04-09T11:32:41.607Z,16.00
2023-04-09T11:35:13.518Z,15.69
2023-04-09T11:37:42.037Z,16.28
2023-04-09T11:43:24.849Z,16.27
2023-04-09T11:45:51.701Z,16.04
2023-04-09T11:48:18.766Z,15.75
2023-04-09T11:50:46.719Z,16.11
2023-04-09T11:53:20.848Z,16.15
2023-04-09T11:55:51.469Z,16.69
2023-04-09T11:58:18.565Z,16.54
2023-04-09T12:00:45.780Z,17.17
2023-04-09T12:03:12.792Z,16.65
2023-04-09T12:05:42.101Z,15.80
2023-04-09T12:08:10.471Z,15.62
2023-04-09T12:10:38.640Z,16.22
2023-04-09T12:13:13.644Z,16.00
2023-04-09T12:15:43.656Z,16.33
2023-04-09T12:18:13.302Z,16.26
2023-04-09T12:20:49.739Z,16.64
2023-04-09T12:23:16.766Z,16.63
2023-04-09T12:25:45.373Z,16.82
2023-04-09T12:28:15.582Z,16.99
2023-04-09T12:30:43.260Z,16.94
2023-04-09T12:33:11.501Z,16.80
2023-04-09T12:35:38.823Z,16.87
2023-04-09T12:38:06.272Z,17.28
2023-04-09T12:40:33.143Z,16.73
2023-04-09T12:42:59.895Z,16.94
2023-04-09T12:45:28.043Z,17.24
2023-04-09T12:47:55.092Z,16.39
2023-04-09T12:50:22.359Z,16.02
2023-04-09T12:52:49.154Z,16.61
2023-04-09T12:55:16.744Z,16.52
2023-04-09T12:57:45.925Z,16.85
2023-04-09T13:00:13.410Z,16.47
2023-04-09T13:02:40.421Z,17.03
2023-04-09T13:05:07.621Z,16.41
2023-04-09T13:07:34.367Z,17.16
2023-04-09T13:10:01.468Z,17.09
2023-04-09T13:12:28.200Z,17.10
2023-04-09T13:14:55.159Z,17.27
2023-04-09T13:17:22.982Z,17.38
2023-04-09T13:19:51.407Z,17.53
2023-04-09T13:22:18.837Z,16.99
2023-04-09T13:24:45.614Z,17.69
2023-04-09T13:27:12.377Z,17.60
2023-04-09T13:29:39.138Z,16.89
2023-04-09T13:32:07.642Z,17.50
2023-04-09T13:34:35.633Z,17.36
2023-04-09T13:37:05.411Z,16.94
2023-04-09T13:39:32.146Z,17.26
2023-04-09T13:41:59.274Z,16.65
2023-04-09T13:44:26.800Z,17.04
2023-04-09T13:46:54.851Z,16.71
2023-04-09T13:49:22.027Z,16.19
2023-04-09T13:51:50.219Z,16.54
2023-04-09T13:54:18.622Z,16.90
2023-04-09T13:56:46.708Z,16.93
2023-04-09T13:59:13.400Z,16.99
2023-04-09T14:01:40.920Z,16.94
2023-04-09T14:04:08.213Z,16.57
2023-04-09T14:06:34.931Z,16.22
2023-04-09T14:09:01.774Z,15.24
2023-04-09T14:11:28.499Z,15.04
2023-04-09T14:13:55.732Z,15.58
2023-04-09T14:16:22.524Z,15.91
2023-04-09T14:18:49.404Z,15.56
2023-04-09T14:21:16.048Z,15.23
2023-04-09T14:23:42.654Z,14.75
2023-04-09T14:26:09.371Z,14.50
2023-04-09T14:28:36.630Z,14.26
2023-04-09T14:31:03.747Z,14.52
2023-04-09T14:33:30.713Z,14.55
2023-04-09T14:35:58.859Z,14.40
2023-04-09T14:38:25.883Z,14.53
2023-04-09T14:40:58.931Z,14.05
2023-04-09T14:43:25.742Z,13.93
2023-04-09T14:45:52.353Z,14.20
2023-04-09T14:48:19.026Z,14.15
2023-04-09T14:50:45.950Z,14.14
2023-04-09T14:53:12.615Z,13.93
2023-04-09T14:55:39.285Z,13.86
2023-04-09T14:58:08.122Z,13.75
2023-04-09T15:00:35.003Z,13.63
2023-04-09T15:03:01.974Z,13.91
2023-04-09T15:05:28.827Z,13.82
2023-04-09T15:07:55.990Z,13.58
2023-04-09T15:10:22.752Z,13.63
2023-04-09T15:12:49.525Z,13.68
2023-04-09T15:15:16.375Z,13.71
2023-04-09T15:17:43.170Z,13.23
2023-04-09T15:20:10.535Z,13.42
2023-04-09T15:22:37.205Z,13.18
2023-04-09T15:25:03.947Z,13.09
2023-04-09T15:27:30.578Z,13.31
2023-04-09T15:29:57.230Z,13.46
2023-04-09T15:32:23.994Z,13.48
2023-04-09T15:34:50.719Z,13.46
2023-04-09T15:37:17.381Z,13.41
2023-04-09T15:39:44.273Z,13.32
2023-04-09T15:42:12.243Z,13.21
2023-04-09T15:44:41.511Z,13.21
2023-04-09T15:47:08.201Z,13.24
2023-04-09T15:49:36.970Z,13.27
2023-04-09T15:52:04.090Z,13.13
2023-04-09T15:54:31.168Z,13.22
2023-04-09T15:56:58.018Z,12.90
2023-04-09T15:59:24.775Z,13.02
2023-04-09T16:01:53.052Z,12.83
2023-04-09T16:04:19.761Z,12.90
2023-04-09T16:06:46.471Z,12.73
2023-04-09T16:09:13.200Z,12.74
2023-04-09T16:11:40.609Z,12.72
2023-04-09T16:14:07.510Z,12.69
2023-04-09T16:16:34.233Z,12.63
2023-04-09T16:19:01.124Z,12.76
2023-04-09T16:21:28.264Z,12.77
2023-04-09T16:23:54.927Z,12.56
2023-04-09T16:26:21.607Z,12.70
2023-04-09T16:28:49.061Z,12.60
2023-04-09T16:31:16.090Z,12.54
2023-04-09T16:33:42.853Z,12.50
2023-04-09T16:36:09.589Z,12.26
2023-04-09T16:38:36.597Z,12.04
2023-04-09T16:41:03.493Z,12.04
2023-04-09T16:43:30.366Z,11.84
2023-04-09T16:45:57.287Z,11.98
2023-04-09T16:48:24.140Z,11.74
2023-04-09T16:50:50.874Z,11.54
2023-04-09T16:53:17.528Z,11.54
2023-04-09T16:55:44.937Z,11.67
2023-04-09T16:58:11.688Z,11.49
2023-04-09T17:00:40.102Z,11.23
2023-04-09T17:03:07.038Z,11.36
2023-04-09T17:05:33.983Z,11.32
2023-04-09T17:08:01.307Z,11.30
2023-04-09T17:10:28.003Z,11.07
2023-04-09T17:12:54.892Z,10.90
2023-04-09T17:15:22.756Z,10.88
2023-04-09T17:17:52.476Z,10.75
2023-04-09T17:20:21.905Z,10.93
2023-04-09T17:22:48.621Z,11.04
2023-04-09T17:25:15.726Z,10.73
2023-04-09T17:27:43.962Z,10.41
2023-04-09T17:30:12.309Z,10.25
2023-04-09T17:32:39.851Z,10.17
2023-04-09T17:35:07.729Z,10.04
2023-04-09T17:37:34.965Z,10.10
2023-04-09T17:40:04.666Z,10.11
2023-04-09T17:42:31.549Z,9.82
2023-04-09T17:44:58.259Z,9.56
2023-04-09T17:47:24.927Z,9.52
2023-04-09T17:49:52.694Z,9.64
2023-04-09T17:52:20.538Z,9.62
2023-04-09T17:54:47.276Z,9.55
2023-04-09T17:57:13.957Z,9.40
2023-04-09T17:59:41.094Z,9.20
2023-04-09T18:02:07.955Z,9.00
2023-04-09T18:04:35.430Z,9.02
2023-04-09T18:07:02.692Z,8.91
2023-04-09T18:09:29.390Z,8.89
2023-04-09T18:11:57.809Z,8.94
2023-04-09T18:14:24.805Z,9.03
2023-04-09T18:16:51.886Z,8.84
2023-04-09T18:19:18.621Z,8.91
2023-04-09T18:21:45.315Z,8.77
2023-04-09T18:24:12.101Z,8.80
2023-04-09T18:26:38.778Z,8.67
2023-04-09T18:29:06.038Z,8.68
2023-04-09T18:31:32.887Z,8.62
2023-04-09T18:33:59.633Z,8.61
2023-04-09T18:36:28.458Z,8.71
2023-04-09T18:38:56.353Z,8.64
2023-04-09T18:41:26.724Z,8.46
2023-04-09T18:43:54.128Z,8.53
2023-04-09T18:46:21.114Z,8.39
2023-04-09T18:48:47.921Z,8.67
2023-04-09T18:51:14.839Z,8.49
2023-04-09T18:53:42.240Z,8.35
2023-04-09T18:56:09.480Z,8.24
2023-04-09T18:58:36.450Z,8.35
2023-04-09T19:01:11.823Z,8.20
2023-04-09T19:03:39.966Z,8.08
2023-04-09T19:06:12.213Z,7.93
2023-04-09T19:08:39.201Z,8.01
2023-04-09T19:11:07.725Z,8.02
2023-04-09T19:13:34.899Z,7.91
2023-04-09T19:16:02.471Z,7.85
2023-04-09T19:18:29.568Z,7.85
2023-04-09T19:20:56.224Z,7.75
2023-04-09T19:23:23.139Z,7.84
2023-04-09T19:25:52.091Z,7.74
2023-04-09T19:28:18.802Z,7.77
2023-04-09T19:30:45.499Z,7.59
2023-04-09T19:33:12.251Z,7.66
2023-04-09T19:35:41.088Z,7.56
2023-04-09T19:38:08.233Z,7.54
2023-04-09T19:40:35.088Z,7.55
2023-04-09T19:43:01.947Z,7.58
2023-04-09T19:45:28.672Z,7.59
2023-04-09T19:47:55.999Z,7.64
2023-04-09T19:50:22.890Z,7.60
2023-04-09T19:52:49.691Z,7.57
2023-04-09T19:55:16.482Z,7.71
2023-04-09T19:57:44.352Z,7.66
2023-04-09T20:00:11.741Z,7.77
2023-04-09T20:02:39.682Z,7.70
2023-04-09T20:05:06.670Z,7.44
2023-04-09T20:07:34.142Z,7.53
2023-04-09T20:10:01.063Z,7.35
2023-04-09T20:12:29.547Z,7.34
2023-04-09T20:14:57.362Z,6.94
2023-04-09T20:17:24.444Z,7.22
2023-04-09T20:19:51.342Z,7.29
2023-04-09T20:22:18.031Z,7.33
2023-04-09T20:24:44.731Z,7.32
2023-04-09T20:27:11.425Z,7.29
2023-04-09T20:29:38.521Z,7.25
2023-04-09T20:32:05.680Z,7.28
2023-04-09T20:34:32.657Z,7.33
2023-04-09T20:36:59.336Z,7.40
2023-04-09T20:39:29.106Z,7.45
2023-04-09T20:41:56.736Z,7.52
2023-04-09T20:44:24.546Z,7.65
2023-04-09T20:46:51.418Z,7.46
2023-04-09T20:49:18.214Z,7.33
2023-04-09T20:54:39.451Z,7.37
2023-04-09T20:57:06.729Z,7.44
2023-04-09T20:59:34.069Z,7.63
2023-04-09T21:02:00.798Z,7.49
2023-04-09T21:04:27.856Z,7.34
2023-04-09T21:06:54.683Z,7.25
2023-04-09T21:09:21.370Z,6.92
2023-04-09T21:11:48.021Z,7.07
2023-04-09T21:14:14.815Z,6.91
2023-04-09T21:16:41.528Z,6.85
2023-04-09T21:19:08.245Z,6.90
2023-04-09T21:21:35.010Z,6.86
2023-04-09T21:24:01.768Z,6.92
2023-04-09T21:26:33.692Z,6.84
2023-04-09T21:29:11.863Z,6.91
2023-04-09T21:31:38.931Z,6.77
2023-04-09T21:34:05.603Z,6.86
2023-04-09T21:36:36.280Z,7.10
2023-04-09T21:39:03.364Z,7.19
2023-04-09T21:41:30.069Z,7.22
2023-04-09T21:43:56.753Z,7.18
2023-04-09T21:46:23.796Z,6.88
2023-04-09T21:48:51.140Z,6.88
2023-04-09T21:51:18.089Z,6.87
2023-04-09T21:53:44.758Z,6.93
2023-04-09T21:56:11.443Z,6.87
2023-04-09T21:58:38.133Z,7.09
2023-04-09T22:01:06.121Z,6.90
2023-04-09T22:03:35.089Z,6.87
2023-04-09T22:06:01.921Z,6.86
2023-04-09T22:08:29.691Z,6.74
2023-04-09T22:10:56.278Z,6.84
2023-04-09T22:13:22.921Z,6.72
2023-04-09T22:15:49.687Z,6.58
2023-04-09T22:18:16.418Z,6.50
2023-04-09T22:20:43.150Z,6.31
2023-04-09T22:23:09.882Z,6.35
2023-04-09T22:25:36.878Z,6.29
2023-04-09T22:28:05.836Z,6.29
2023-04-09T22:30:32.627Z,6.36
2023-04-09T22:32:59.409Z,6.19
2023-04-09T22:35:26.078Z,6.08
2023-04-09T22:37:52.910Z,6.01
2023-04-09T22:40:19.781Z,5.94
2023-04-09T22:42:47.509Z,5.94
2023-04-09T22:45:14.727Z,5.89
2023-04-09T22:47:41.733Z,5.95
2023-04-09T22:50:09.352Z,5.93
2023-04-09T22:52:36.019Z,6.20
2023-04-09T22:55:03.133Z,6.30
2023-04-09T22:57:30.374Z,6.34
2023-04-09T22:59:57.712Z,6.04
2023-04-09T23:02:24.459Z,6.08
2023-04-09T23:04:51.438Z,6.19
2023-04-09T23:07:18.122Z,6.32
2023-04-09T23:09:45.295Z,6.40
2023-04-09T23:12:11.969Z,6.49
2023-04-09T23:14:38.677Z,6.38
2023-04-09T23:17:05.365Z,6.45
2023-04-09T23:19:32.000Z,6.27
2023-04-09T23:21:58.642Z,6.09
2023-04-09T23:24:25.308Z,5.92
2023-04-09T23:26:51.985Z,5.78
2023-04-09T23:29:18.805Z,5.82
2023-04-09T23:31:45.586Z,5.89
2023-04-09T23:34:13.059Z,6.14
2023-04-09T23:36:40.086Z,5.99
2023-04-09T23:39:06.756Z,6.00
2023-04-09T23:41:33.397Z,5.90
2023-04-09T23:44:00.101Z,5.84
2023-04-09T23:46:27.473Z,6.04
2023-04-09T23:48:54.178Z,6.06
2023-04-09T23:51:21.186Z,5.82
2023-04-09T23:53:47.899Z,5.81
2023-04-09T23:56:14.614Z,5.78
2023-04-09T23:58:41.439Z,5.77
